createdAt,value
2023-04-22T00:00:29.050Z,11.29
2023-04-22T00:03:32.971Z,11.12
2023-04-22T00:06:35.870Z,11.23
2023-04-22T00:09:38.635Z,11.27
2023-04-22T00:12:41.632Z,11.29
2023-04-22T00:15:44.531Z,11.32
2023-04-22T00:18:47.007Z,11.33
2023-04-22T00:21:49.537Z,11.33
2023-04-22T00:24:52.015Z,11.25
2023-04-22T00:27:54.715Z,11.28
2023-04-22T00:30:58.783Z,11.30
2023-04-22T00:34:01.288Z,11.28
2023-04-22T00:37:03.849Z,11.34
2023-04-22T00:40:07.102Z,11.41
2023-04-22T00:43:09.800Z,11.34
2023-04-22T00:46:12.357Z,11.48
2023-04-22T00:49:14.863Z,11.45
2023-04-22T00:52:18.636Z,11.45
2023-04-22T00:55:21.401Z,11.43
2023-04-22T00:58:26.076Z,11.47
2023-04-22T01:01:28.625Z,11.53
2023-04-22T01:04:31.464Z,11.55
2023-04-22T01:07:34.290Z,11.55
2023-04-22T01:10:36.838Z,11.40
2023-04-22T01:13:40.826Z,11.28
2023-04-22T01:16:43.847Z,11.26
2023-04-22T01:19:47.461Z,11.34
2023-04-22T01:22:49.872Z,11.30
2023-04-22T01:25:52.355Z,11.26
2023-04-22T01:28:54.795Z,11.12
2023-04-22T01:31:57.343Z,11.14
2023-04-22T01:34:59.858Z,11.12
2023-04-22T01:38:03.980Z,11.07
2023-04-22T01:41:06.737Z,10.94
2023-04-22T01:44:09.365Z,10.88
2023-04-22T01:47:13.441Z,10.71
2023-04-22T01:50:16.228Z,10.81
2023-04-22T01:53:18.657Z,10.78
2023-04-22T01:56:21.528Z,10.82
2023-04-22T01:59:24.314Z,10.92
2023-04-22T02:02:26.967Z,10.77
2023-04-22T02:05:29.525Z,10.79
2023-04-22T02:08:32.390Z,10.81
2023-04-22T02:11:34.809Z,10.79
2023-04-22T02:14:37.305Z,10.90
2023-04-22T02:17:42.397Z,10.84
2023-04-22T02:20:44.970Z,10.84
2023-04-22T02:23:47.466Z,10.84
2023-04-22T02:26:50.092Z,10.77
2023-04-22T02:29:52.862Z,10.68
2023-04-22T02:32:56.407Z,10.65
2023-04-22T02:35:59.111Z,10.53
2023-04-22T02:39:06.126Z,10.47
2023-04-22T02:42:11.123Z,10.45
2023-04-22T02:45:14.152Z,10.45
2023-04-22T02:48:18.419Z,10.50
2023-04-22T02:51:21.898Z,10.32
2023-04-22T02:54:24.477Z,10.32
2023-04-22T02:57:27.265Z,10.25
2023-04-22T03:00:29.916Z,10.03
2023-04-22T03:03:32.575Z,10.04
2023-04-22T03:06:35.671Z,10.06
2023-04-22T03:09:38.329Z,10.20
2023-04-22T03:12:41.491Z,10.16
2023-04-22T03:15:43.927Z,10.18
2023-04-22T03:18:46.460Z,10.14
2023-04-22T03:21:49.015Z,10.05
2023-04-22T03:24:51.817Z,10.05
2023-04-22T03:27:54.597Z,10.12
2023-04-22T03:30:57.188Z,10.14
2023-04-22T03:34:00.067Z,10.20
2023-04-22T03:37:04.925Z,10.24
2023-04-22T03:40:08.062Z,10.33
2023-04-22T03:43:10.570Z,10.32
2023-04-22T03:46:13.729Z,10.32
2023-04-22T03:49:21.086Z,10.32
2023-04-22T03:52:24.281Z,10.19
2023-04-22T03:55:33.532Z,10.21
2023-04-22T03:58:36.963Z,10.22
2023-04-22T04:01:42.094Z,10.16
2023-04-22T04:04:46.584Z,10.16
2023-04-22T04:07:49.936Z,10.21
2023-04-22T04:10:52.437Z,10.26
2023-04-22T04:13:54.936Z,10.37
2023-04-22T04:17:03.752Z,10.28
2023-04-22T04:20:09.670Z,10.35
2023-04-22T04:23:12.654Z,10.44
2023-04-22T04:26:15.206Z,10.40
2023-04-22T04:29:21.472Z,10.41
2023-04-22T04:32:35.883Z,10.45
2023-04-22T04:35:43.395Z,10.47
2023-04-22T04:38:48.105Z,10.57
2023-04-22T04:41:55.155Z,10.49
2023-04-22T04:44:58.992Z,10.50
2023-04-22T04:48:03.236Z,10.64
2023-04-22T04:51:11.712Z,10.88
2023-04-22T04:54:24.185Z,10.95
2023-04-22T04:57:27.142Z,10.96
2023-04-22T05:00:30.922Z,11.06
2023-04-22T05:03:33.920Z,11.14
2023-04-22T05:06:37.066Z,11.33
2023-04-22T05:09:40.967Z,11.45
2023-04-22T05:12:46.362Z,11.63
2023-04-22T05:15:54.689Z,11.68
2023-04-22T05:18:58.705Z,11.77
2023-04-22T05:22:01.377Z,11.83
2023-04-22T05:25:05.356Z,11.83
2023-04-22T05:28:08.436Z,11.87
2023-04-22T05:31:19.306Z,11.95
2023-04-22T05:34:22.782Z,12.08
2023-04-22T05:37:25.637Z,12.23
2023-04-22T05:40:28.578Z,12.22
2023-04-22T05:43:31.334Z,12.27
2023-04-22T05:46:41.790Z,12.54
2023-04-22T05:49:44.545Z,12.71
2023-04-22T05:52:53.094Z,12.93
2023-04-22T05:55:56.463Z,13.15
2023-04-22T05:58:59.974Z,13.27
2023-04-22T06:02:02.881Z,13.30
2023-04-22T06:05:06.570Z,13.49
2023-04-22T06:08:09.359Z,13.47
2023-04-22T06:11:11.852Z,13.59
2023-04-22T06:14:14.609Z,13.85
2023-04-22T06:17:18.860Z,14.22
2023-04-22T06:20:21.805Z,14.49
2023-04-22T06:23:24.258Z,14.54
2023-04-22T06:26:26.949Z,14.43
2023-04-22T06:29:29.448Z,14.48
2023-04-22T06:32:31.957Z,14.63
2023-04-22T06:35:34.401Z,14.97
2023-04-22T06:38:36.960Z,15.14
2023-04-22T06:42:18.268Z,15.35
2023-04-22T06:45:40.932Z,15.44
2023-04-22T06:48:57.566Z,15.69
2023-04-22T06:52:23.526Z,15.96
2023-04-22T06:55:28.501Z,16.18
2023-04-22T06:58:31.121Z,16.37
2023-04-22T07:01:33.960Z,16.59
2023-04-22T07:04:36.759Z,16.75
2023-04-22T07:07:39.674Z,16.97
2023-04-22T07:10:43.702Z,17.10
2023-04-22T07:14:09.378Z,17.28
2023-04-22T07:17:12.045Z,17.48
2023-04-22T07:20:14.479Z,17.71
2023-04-22T07:23:17.165Z,17.86
2023-04-22T07:26:19.607Z,17.98
2023-04-22T07:29:22.431Z,18.35
2023-04-22T07:32:24.735Z,18.59
2023-04-22T07:35:28.675Z,18.74
2023-04-22T07:38:31.106Z,19.02
2023-04-22T07:41:33.558Z,19.18
2023-04-22T07:44:37.664Z,19.22
2023-04-22T07:47:42.204Z,19.26
2023-04-22T07:50:44.525Z,19.37
2023-04-22T07:53:46.857Z,19.39
2023-04-22T07:56:49.379Z,19.50
2023-04-22T07:59:51.914Z,19.70
2023-04-22T08:02:54.496Z,19.99
2023-04-22T08:05:58.402Z,20.13
2023-04-22T08:09:01.053Z,20.43
2023-04-22T08:12:03.628Z,20.66
2023-04-22T08:15:06.881Z,20.65
2023-04-22T08:18:09.527Z,20.96
2023-04-22T08:21:12.516Z,20.97
2023-04-22T08:24:15.217Z,20.90
2023-04-22T08:27:19.367Z,20.84
2023-04-22T08:30:21.938Z,21.00
2023-04-22T08:33:26.519Z,21.40
2023-04-22T08:36:30.936Z,21.74
2023-04-22T08:39:33.464Z,21.64
2023-04-22T08:42:35.959Z,21.58
2023-04-22T08:45:39.640Z,21.83
2023-04-22T08:48:42.250Z,21.71
2023-04-22T08:51:45.086Z,21.78
2023-04-22T08:54:47.490Z,21.96
2023-04-22T08:57:50.395Z,21.84
2023-04-22T09:00:53.157Z,22.11
2023-04-22T09:03:55.902Z,22.52
2023-04-22T09:07:01.790Z,22.25
2023-04-22T09:10:04.489Z,22.27
2023-04-22T09:13:07.256Z,22.34
2023-04-22T09:16:10.168Z,22.37
2023-04-22T09:19:13.263Z,22.57
2023-04-22T09:22:16.384Z,22.99
2023-04-22T09:25:23.263Z,23.37
2023-04-22T09:28:26.232Z,23.80
2023-04-22T09:31:28.705Z,23.99
2023-04-22T09:34:31.234Z,23.98
2023-04-22T09:37:48.561Z,23.70
2023-04-22T09:40:51.484Z,23.40
2023-04-22T09:43:56.251Z,23.30
2023-04-22T09:46:59.231Z,23.79
2023-04-22T09:50:04.849Z,23.66
2023-04-22T09:53:08.419Z,23.61
2023-04-22T09:56:11.534Z,23.84
2023-04-22T09:59:28.333Z,24.15
2023-04-22T10:02:30.897Z,24.75
2023-04-22T10:05:37.824Z,25.09
2023-04-22T10:08:40.328Z,24.97
2023-04-22T10:11:42.809Z,25.57
2023-04-22T10:14:45.381Z,25.98
2023-04-22T10:17:47.862Z,26.30
2023-04-22T10:20:50.970Z,26.51
2023-04-22T10:23:53.537Z,26.48
2023-04-22T10:27:01.499Z,26.46
2023-04-22T10:30:04.120Z,26.55
2023-04-22T10:33:23.994Z,25.18
2023-04-22T10:36:26.388Z,25.40
2023-04-22T10:39:28.909Z,25.12
2023-04-22T10:42:31.357Z,23.96
2023-04-22T10:45:33.927Z,23.97
2023-04-22T10:48:49.718Z,22.94
2023-04-22T10:51:59.886Z,22.61
2023-04-22T10:55:02.554Z,22.28
2023-04-22T10:58:18.918Z,22.17
2023-04-22T11:01:21.372Z,21.97
2023-04-22T11:04:24.388Z,22.08
2023-04-22T11:07:27.253Z,21.98
2023-04-22T11:10:43.776Z,21.72
2023-04-22T11:13:52.866Z,21.64
2023-04-22T11:16:55.362Z,21.62
2023-04-22T11:19:58.310Z,21.65
2023-04-22T11:23:00.722Z,21.68
2023-04-22T11:26:06.603Z,21.63
2023-04-22T11:29:09.457Z,21.20
2023-04-22T11:32:12.070Z,21.40
2023-04-22T11:35:21.401Z,21.44
2023-04-22T11:38:23.734Z,22.04
2023-04-22T11:41:27.833Z,25.16
2023-04-22T11:44:30.271Z,27.23
2023-04-22T11:47:32.884Z,28.65
2023-04-22T11:50:39.870Z,28.45
2023-04-22T11:53:50.513Z,28.01
2023-04-22T11:56:53.034Z,26.42
2023-04-22T11:59:59.373Z,25.81
2023-04-22T12:03:08.195Z,24.42
2023-04-22T12:06:11.388Z,23.64
2023-04-22T12:09:14.094Z,23.29
2023-04-22T12:12:16.531Z,22.85
2023-04-22T12:15:19.016Z,22.66
2023-04-22T12:18:30.885Z,22.41
2023-04-22T12:21:33.556Z,22.31
2023-04-22T12:24:36.274Z,22.28
2023-04-22T12:27:38.761Z,22.18
2023-04-22T12:30:41.374Z,22.22
2023-04-22T12:33:43.673Z,21.97
2023-04-22T12:36:46.043Z,22.04
2023-04-22T12:39:48.917Z,22.09
2023-04-22T12:42:51.758Z,22.08
2023-04-22T12:45:54.505Z,22.30
2023-04-22T12:48:57.063Z,22.57
2023-04-22T12:51:59.465Z,22.93
2023-04-22T12:55:02.036Z,25.76
2023-04-22T12:58:04.464Z,27.96
2023-04-22T13:01:06.692Z,28.07
2023-04-22T13:04:09.266Z,29.58
2023-04-22T13:07:11.864Z,30.23
2023-04-22T13:10:15.356Z,30.96
2023-04-22T13:13:19.369Z,31.37
2023-04-22T13:16:22.421Z,30.96
2023-04-22T13:19:27.073Z,31.43
2023-04-22T13:22:29.519Z,31.61
2023-04-22T13:25:32.174Z,31.20
2023-04-22T13:28:34.599Z,30.30
2023-04-22T13:31:38.620Z,29.41
2023-04-22T13:34:41.324Z,27.46
2023-04-22T13:37:43.876Z,26.21
2023-04-22T13:40:46.692Z,25.63
2023-04-22T13:43:54.272Z,24.72
2023-04-22T13:46:56.841Z,24.20
2023-04-22T13:50:00.823Z,24.06
2023-04-22T13:53:04.325Z,23.89
2023-04-22T13:56:06.971Z,24.25
2023-04-22T13:59:09.582Z,23.72
2023-04-22T14:02:13.027Z,23.52
2023-04-22T14:05:15.591Z,23.10
2023-04-22T14:08:18.108Z,23.07
2023-04-22T14:11:20.753Z,23.08
2023-04-22T14:14:23.125Z,23.09
2023-04-22T14:17:27.777Z,23.01
2023-04-22T14:20:31.456Z,22.58
2023-04-22T14:23:34.138Z,22.40
2023-04-22T14:26:36.800Z,22.18
2023-04-22T14:29:39.839Z,22.14
2023-04-22T14:32:42.499Z,22.18
2023-04-22T14:35:44.744Z,22.40
2023-04-22T14:38:47.430Z,22.63
2023-04-22T14:41:49.853Z,23.39
2023-04-22T14:44:52.741Z,24.75
2023-04-22T14:47:55.926Z,24.44
2023-04-22T14:50:59.942Z,24.88
2023-04-22T14:54:02.521Z,25.70
2023-04-22T14:57:04.957Z,25.02
2023-04-22T15:00:08.076Z,24.41
2023-04-22T15:03:10.577Z,24.51
2023-04-22T15:06:13.580Z,23.95
2023-04-22T15:09:16.291Z,23.54
2023-04-22T15:12:18.946Z,23.20
2023-04-22T15:15:21.389Z,22.66
2023-04-22T15:18:24.949Z,22.48
2023-04-22T15:21:27.593Z,22.55
2023-04-22T15:24:30.313Z,22.50
2023-04-22T15:27:33.091Z,22.42
2023-04-22T15:30:35.681Z,22.23
2023-04-22T15:33:38.875Z,22.29
2023-04-22T15:36:41.900Z,22.26
2023-04-22T15:39:44.526Z,22.46
2023-04-22T15:42:47.120Z,22.95
2023-04-22T15:45:49.727Z,23.19
2023-04-22T15:48:52.441Z,22.87
2023-04-22T15:51:54.981Z,22.30
2023-04-22T15:54:57.594Z,22.69
2023-04-22T15:58:00.048Z,22.88
2023-04-22T16:01:15.336Z,22.57
2023-04-22T16:04:21.803Z,22.14
2023-04-22T16:07:24.522Z,21.95
2023-04-22T16:10:27.980Z,21.64
2023-04-22T16:13:30.512Z,21.46
2023-04-22T16:16:32.846Z,21.18
2023-04-22T16:19:36.014Z,20.91
2023-04-22T16:22:38.528Z,20.83
2023-04-22T16:25:41.360Z,20.76
2023-04-22T16:28:43.785Z,20.60
2023-04-22T16:31:46.057Z,20.43
2023-04-22T16:34:48.532Z,20.16
2023-04-22T16:37:51.024Z,20.13
2023-04-22T16:40:54.439Z,19.77
2023-04-22T16:43:57.567Z,19.64
2023-04-22T16:47:00.088Z,19.63
2023-04-22T16:50:02.816Z,19.57
2023-04-22T16:53:05.500Z,19.41
2023-04-22T16:56:07.880Z,19.45
2023-04-22T16:59:10.401Z,19.41
2023-04-22T17:02:12.878Z,19.29
2023-04-22T17:05:15.473Z,19.25
2023-04-22T17:08:18.027Z,19.18
2023-04-22T17:11:20.730Z,19.04
2023-04-22T17:14:23.078Z,19.03
2023-04-22T17:17:25.707Z,18.91
2023-04-22T17:20:28.449Z,18.84
2023-04-22T17:23:30.986Z,18.76
2023-04-22T17:26:33.766Z,18.65
2023-04-22T17:29:36.250Z,18.60
2023-04-22T17:32:38.937Z,18.44
2023-04-22T17:35:41.619Z,18.33
2023-04-22T17:38:44.111Z,18.36
2023-04-22T17:41:47.507Z,18.27
2023-04-22T17:44:49.982Z,18.11
2023-04-22T17:47:52.687Z,18.02
2023-04-22T17:50:55.435Z,17.88
2023-04-22T17:53:57.952Z,17.73
2023-04-22T17:57:00.505Z,17.61
2023-04-22T18:00:03.747Z,17.56
2023-04-22T18:03:09.748Z,17.50
2023-04-22T18:06:12.309Z,17.37
2023-04-22T18:09:14.873Z,17.24
2023-04-22T18:12:17.800Z,17.05
2023-04-22T18:15:20.855Z,17.02
2023-04-22T18:18:23.641Z,16.90
2023-04-22T18:21:26.006Z,16.81
2023-04-22T18:24:28.507Z,16.69
2023-04-22T18:27:31.609Z,16.56
2023-04-22T18:30:34.101Z,16.42
2023-04-22T18:33:36.983Z,16.20
2023-04-22T18:36:40.639Z,16.16
2023-04-22T18:39:43.256Z,16.10
2023-04-22T18:42:47.795Z,15.97
2023-04-22T18:45:51.202Z,15.88
2023-04-22T18:48:53.851Z,15.82
2023-04-22T18:51:56.366Z,15.69
2023-04-22T18:54:59.148Z,15.52
2023-04-22T18:58:01.501Z,15.42
2023-04-22T19:01:03.978Z,15.35
2023-04-22T19:04:08.008Z,15.25
2023-04-22T19:07:10.644Z,15.13
2023-04-22T19:10:13.165Z,15.02
2023-04-22T19:13:28.715Z,14.94
2023-04-22T19:16:32.496Z,14.98
2023-04-22T19:19:35.003Z,15.08
2023-04-22T19:22:37.483Z,15.11
2023-04-22T19:25:40.303Z,14.99
2023-04-22T19:28:47.226Z,14.87
2023-04-22T19:31:51.031Z,14.75
2023-04-22T19:34:53.821Z,14.77
2023-04-22T19:37:56.232Z,14.56
2023-04-22T19:40:58.704Z,14.49
2023-04-22T19:44:01.696Z,14.39
2023-04-22T19:47:04.279Z,14.26
2023-04-22T19:50:08.007Z,14.24
2023-04-22T19:53:10.928Z,14.18
2023-04-22T19:56:16.253Z,14.17
2023-04-22T19:59:18.690Z,14.08
2023-04-22T20:02:23.104Z,13.98
2023-04-22T20:05:26.900Z,14.01
2023-04-22T20:08:29.417Z,13.94
2023-04-22T20:11:32.783Z,13.95
2023-04-22T20:14:35.432Z,14.03
2023-04-22T20:17:39.354Z,13.83
2023-04-22T20:20:45.726Z,13.87
2023-04-22T20:23:48.195Z,13.91
2023-04-22T20:26:51.268Z,13.87
2023-04-22T20:29:53.888Z,13.97
2023-04-22T20:32:56.464Z,14.01
2023-04-22T20:35:59.051Z,13.90
2023-04-22T20:39:05.463Z,13.74
2023-04-22T20:42:09.086Z,13.65
2023-04-22T20:45:15.807Z,13.46
2023-04-22T20:48:18.491Z,13.25
2023-04-22T20:51:21.011Z,13.08
2023-04-22T20:54:29.071Z,13.01
2023-04-22T20:57:32.003Z,13.07
2023-04-22T21:00:34.524Z,12.80
2023-04-22T21:03:38.092Z,12.61
2023-04-22T21:06:41.214Z,12.53
2023-04-22T21:09:44.034Z,12.70
2023-04-22T21:12:46.823Z,12.71
2023-04-22T21:15:59.163Z,12.59
2023-04-22T21:19:02.061Z,12.50
2023-04-22T21:22:08.606Z,12.49
2023-04-22T21:25:11.671Z,12.37
2023-04-22T21:28:15.086Z,12.45
2023-04-22T21:31:17.972Z,12.41
2023-04-22T21:34:20.555Z,12.25
2023-04-22T21:37:23.203Z,12.18
2023-04-22T21:40:26.194Z,12.23
2023-04-22T21:43:29.625Z,12.00
2023-04-22T21:46:32.010Z,12.00
2023-04-22T21:49:34.440Z,12.10
2023-04-22T21:52:37.531Z,11.99
2023-04-22T21:55:40.339Z,12.03
2023-04-22T21:58:42.791Z,11.95
2023-04-22T22:01:45.841Z,11.79
2023-04-22T22:04:48.310Z,11.87
2023-04-22T22:07:53.076Z,11.87
2023-04-22T22:10:55.735Z,11.83
2023-04-22T22:13:58.455Z,11.85
2023-04-22T22:17:01.639Z,11.65
2023-04-22T22:20:11.352Z,11.66
2023-04-22T22:23:13.921Z,11.66
2023-04-22T22:26:16.437Z,11.56
2023-04-22T22:29:19.053Z,11.52
2023-04-22T22:32:21.625Z,11.65
2023-04-22T22:35:24.197Z,11.58
2023-04-22T22:38:26.792Z,11.55
2023-04-22T22:41:29.581Z,11.45
2023-04-22T22:44:32.093Z,11.46
2023-04-22T22:47:34.685Z,11.39
2023-04-22T22:50:37.207Z,11.34
2023-04-22T22:53:40.347Z,11.33
2023-04-22T22:56:42.891Z,11.24
2023-04-22T22:59:45.667Z,11.17
2023-04-22T23:02:48.467Z,11.17
2023-04-22T23:05:51.148Z,11.18
2023-04-22T23:08:53.746Z,11.11
2023-04-22T23:11:56.727Z,11.03
2023-04-22T23:14:59.217Z,11.08
2023-04-22T23:18:01.838Z,11.05
2023-04-22T23:21:04.772Z,10.97
2023-04-22T23:24:09.189Z,10.93
2023-04-22T23:27:11.816Z,10.90
2023-04-22T23:30:15.915Z,10.96
2023-04-22T23:33:18.646Z,10.76
2023-04-22T23:36:21.206Z,10.76
2023-04-22T23:39:23.784Z,10.79
2023-04-22T23:42:26.521Z,10.84
2023-04-22T23:45:29.409Z,10.83
2023-04-22T23:48:31.979Z,10.80
2023-04-22T23:51:35.168Z,10.74
2023-04-22T23:54:38.217Z,10.80
2023-04-22T23:57:40.944Z,10.79
